Gale Warning
click here for details
SBYC BurgeeSandy Bay Yacht Club
Weather Center


Nearby METAR Reports

Nearby METAR Reports

 

KBVY - Beverly, Massachusetts, USA
Distance from station: WSW 16mi, 26km
Updated: Fri, 22-Mar-2019 1:53am EDT
Light rain, Overcast
Light rain, Overcast
 Wind from NNE
Wind: NNE 12 mph , 19 km/h
Temperature: 39°F , 4°C
Wind Chill: 32°F , 0°C
Dew Point: 36°F , 2°C
Humidity: 87%
Barometer: 29.75 inHg , 1007.5 hPa
Summary: Light Rain
Clouds: Overcast
Visibility: 9 miles , 14 km
Cloud details: Overcast 1000 ft
2019/03/22 05:53 KBVY 220553Z AUTO 03010KT 9SM -RA OVC010 04/02 A2975 RMK AO2 RAB31 PRESFR SLP071 P0000 60000 T00440017 10050 20044 56047
KLWM - Lawrence, Massachusetts, USA
Distance from station: W 27mi, 43km
Updated: Fri, 22-Mar-2019 2:08am EDT
Light rain, Overcast
Light rain, Overcast
 Wind from NE
Wind: NE 12 mph , 19 km/h, Gust: 20 mph , 31 km/h
Temperature: 37°F , 3°C
Wind Chill: 29°F , -2°C
Dew Point: 36°F , 2°C
Humidity: 93%
Barometer: 29.77 inHg , 1008.1 hPa
Summary: Light Rain
Clouds: Overcast
Visibility: 10 miles , 16 km
Cloud details: Overcast 900 ft
2019/03/22 06:08 KLWM 220608Z AUTO 05010G17KT 10SM -RA OVC009 03/02 A2977 RMK AO2 PRESFR P0000 T00330017
 
KBOS - Boston, Massachusetts, USA
Distance from station: SW 29mi, 46km
Updated: Fri, 22-Mar-2019 1:54am EDT
Light rain, Mist, Overcast
Light rain, Mist, Overcast
 Wind from NE
Wind: NE 20 mph , 31 km/h
Temperature: 41°F , 5°C
Wind Chill: 32°F , 0°C
Dew Point: 37°F , 3°C
Humidity: 87%
Barometer: 29.73 inHg , 1006.8 hPa
Summary: Light rain, Mist
Clouds: Overcast
Visibility: 6 miles , 10 km
Cloud details: Overcast 800 ft
2019/03/22 05:54 KBOS 220554Z 05017KT 6SM -RA BR OVC008 05/03 A2973 RMK AO2 SLP068 P0005 60005 T00500028 10056 20044 58051
KPSM - Portsmouth/Pease, New Hampshire, USA
Distance from station: NNW 30mi, 48km
Updated: Fri, 22-Mar-2019 1:56am EDT
Overcast
Overcast
 Wind from ENE
Wind: ENE 9 mph , 15 km/h
Temperature: 39°F , 4°C
Wind Chill: 33°F , 1°C
Dew Point: 34°F , 1°C
Humidity: 81%
Barometer: 29.80 inHg , 1009.1 hPa
Clouds: Overcast
Visibility: 10 miles , 16 km
Cloud details: Mostly Cloudy 1500 ft
Mostly Cloudy 6500 ft
Overcast 10000 ft
2019/03/22 05:56 KPSM 220556Z 07008KT 10SM BKN015 BKN065 OVC100 04/01 A2980 RMK AO2A SLP094 T00360011 10040 20034 57040
 
KMHT - Manchester, New Hampshire, USA
Distance from station: WNW 46mi, 73km
Updated: Fri, 22-Mar-2019 1:53am EDT
Overcast
Overcast
 Wind from ENE
Wind: ENE 9 mph , 15 km/h
Temperature: 39°F , 4°C
Wind Chill: 33°F , 1°C
Dew Point: 34°F , 1°C
Humidity: 81%
Barometer: 29.78 inHg , 1008.5 hPa
Clouds: Overcast
Visibility: 10 miles , 16 km
Cloud details: Overcast 1200 ft
2019/03/22 05:53 KMHT 220553Z 07008KT 10SM OVC012 04/01 A2978 RMK AO2 SLP099 T00390006 10067 20039 56038
KPVC - Provincetown, Massachusetts, USA
Distance from station: SSE 46mi, 73km
Updated: Fri, 22-Mar-2019 1:56am EDT
Partly Cloudy
Partly Cloudy
 Wind from E
Wind: E 17 mph , 28 km/h, Gust: 24 mph , 39 km/h
Temperature: 41°F , 5°C
Wind Chill: 33°F , 1°C
Dew Point: 39°F , 4°C
Humidity: 93%
Barometer: 29.70 inHg , 1005.8 hPa
Clouds: Partly Cloudy
Visibility: 10 miles , 16 km
Cloud details: Partly Cloudy 700 ft
2019/03/22 05:56 KPVC 220556Z AUTO 09015G21KT 10SM SCT007 05/04 A2970 RMK AO2 SLP056 T00500039 10050 20044 58057
 
KDAW - Rochester, New Hampshire, USA
Distance from station: NNW 46mi, 74km
Updated: Fri, 22-Mar-2019 1:51am EDT
Overcast
Overcast
 Wind from NE
Wind: NE 5 mph , 7 km/h
Temperature: 36°F , 2°C
Wind Chill: 32°F , 0°C
Dew Point: 34°F , 1°C
Humidity: 93%
Barometer: 29.80 inHg , 1009.1 hPa
Clouds: Overcast
Visibility: 10 miles , 16 km
Cloud details: Mostly Cloudy 1000 ft
Overcast 10000 ft
2019/03/22 05:51 KDAW 220551Z AUTO 05004KT 10SM BKN010 OVC100 02/01 A2980 RMK AO2 SLP092 T00220011 10039 20022 58039
KASH - Nashua/Boire Fld, New Hampshire, USA
Distance from station: W 47mi, 75km
Updated: Fri, 22-Mar-2019 1:56am EDT
Light rain, Overcast
Light rain, Overcast
 Wind from ENE
Wind: ENE 6 mph , 9 km/h
Temperature: 39°F , 4°C
Wind Chill: 35°F , 2°C
Dew Point: 37°F , 3°C
Humidity: 93%
Barometer: 29.78 inHg , 1008.5 hPa
Summary: Light Rain
Clouds: Overcast
Visibility: 10 miles , 16 km
Cloud details: Overcast 1100 ft
2019/03/22 05:56 KASH 220556Z AUTO 06005KT 10SM -RA OVC011 04/03 A2978 RMK AO2 RAB13 SLP095 P0000 60000 T00390028 10061 20039 56042 $
 
KSFM - Sanford Muni, Maine, USA
Distance from station: N 50mi, 81km
Updated: Fri, 22-Mar-2019 1:56am EDT
Overcast
Overcast
 Wind from NE
Wind: NE 8 mph , 13 km/h
Temperature: 36°F , 2°C
Wind Chill: 30°F , -1°C
Dew Point: 34°F , 1°C
Humidity: 93%
Barometer: 29.82 inHg , 1009.8 hPa
Clouds: Overcast
Visibility: 10 miles , 16 km
Cloud details: Overcast 1400 ft
2019/03/22 05:56 KSFM 220556Z AUTO 04007KT 10SM OVC014 02/01 A2982 RMK AO2 SLP104 6//// T00220011 10033 20006 58039 FZRANO PNO $

Metar display script from Saratoga-Weather.org

 



home

Copyright © Sandy Bay Yacht Club. All rights reserved.